Terminal Aerodrome Forecast
Issued by NWS

Home | Current Version | Previous Version | Text Only | Print | Product List | Glossary On
Versions: 1 2 3 4 5 6 7 8 9 10 11 12 13 14 15 16 17
000
FTUS46 KPDT 261120
TAFALW
TAF
KALW 261120Z 2612/2712 18009KT P6SM -SHRA OVC040
     FM261600 22014KT P6SM -SHRA OVC040
      TEMPO 2619/2623 5SM RA OVC025
     FM270000 23018G30KT P6SM VCSH BKN060
     FM270600 26017G27KT P6SM SCT020 BKN080=

USA.gov is the U.S. government's official web portal to all federal, state and local government web resources and services.